sensor_id;sensor_type;location;lat;lon;timestamp;temperature;humidity
53599;DHT22;39485;45.702;11.364;2023-07-31T00:00:34;22.70;99.90
53599;DHT22;39485;45.702;11.364;2023-07-31T00:02:59;22.70;99.90
53599;DHT22;39485;45.702;11.364;2023-07-31T00:05:25;22.70;99.90
53599;DHT22;39485;45.702;11.364;2023-07-31T00:07:51;22.70;99.90
53599;DHT22;39485;45.702;11.364;2023-07-31T00:10:17;22.70;99.90
53599;DHT22;39485;45.702;11.364;2023-07-31T00:12:44;22.70;99.90
53599;DHT22;39485;45.702;11.364;2023-07-31T00:15:10;22.70;99.90
53599;DHT22;39485;45.702;11.364;2023-07-31T00:17:36;22.70;99.90
53599;DHT22;39485;45.702;11.364;2023-07-31T00:20:02;22.70;99.90
53599;DHT22;39485;45.702;11.364;2023-07-31T00:22:28;22.70;99.90
53599;DHT22;39485;45.702;11.364;2023-07-31T00:24:55;22.70;99.90
53599;DHT22;39485;45.702;11.364;2023-07-31T00:27:21;22.70;99.90
53599;DHT22;39485;45.702;11.364;2023-07-31T00:29:46;22.70;99.90
53599;DHT22;39485;45.702;11.364;2023-07-31T00:32:12;22.70;99.90
53599;DHT22;39485;45.702;11.364;2023-07-31T00:34:38;22.70;99.90
53599;DHT22;39485;45.702;11.364;2023-07-31T00:37:04;22.70;99.90
53599;DHT22;39485;45.702;11.364;2023-07-31T00:39:30;22.70;99.90
53599;DHT22;39485;45.702;11.364;2023-07-31T00:41:56;22.60;99.90
53599;DHT22;39485;45.702;11.364;2023-07-31T00:44:22;22.60;99.90
53599;DHT22;39485;45.702;11.364;2023-07-31T00:46:48;22.50;99.90
53599;DHT22;39485;45.702;11.364;2023-07-31T00:49:15;22.50;99.90
53599;DHT22;39485;45.702;11.364;2023-07-31T00:51:41;22.50;99.90
53599;DHT22;39485;45.702;11.364;2023-07-31T00:54:07;22.50;99.90
53599;DHT22;39485;45.702;11.364;2023-07-31T00:56:33;22.40;99.90
53599;DHT22;39485;45.702;11.364;2023-07-31T00:58:59;22.40;99.90
53599;DHT22;39485;45.702;11.364;2023-07-31T01:01:25;22.40;99.90
53599;DHT22;39485;45.702;11.364;2023-07-31T01:03:52;22.40;99.90
53599;DHT22;39485;45.702;11.364;2023-07-31T01:06:42;22.40;99.90
53599;DHT22;39485;45.702;11.364;2023-07-31T01:09:29;22.30;99.90
53599;DHT22;39485;45.702;11.364;2023-07-31T01:12:07;22.30;99.90
53599;DHT22;39485;45.702;11.364;2023-07-31T01:14:34;22.30;99.90
53599;DHT22;39485;45.702;11.364;2023-07-31T01:17:00;22.20;99.90
53599;DHT22;39485;45.702;11.364;2023-07-31T01:19:26;22.20;99.90
53599;DHT22;39485;45.702;11.364;2023-07-31T01:27:30;22.10;99.90
53599;DHT22;39485;45.702;11.364;2023-07-31T01:30:08;22.10;99.90
53599;DHT22;39485;45.702;11.364;2023-07-31T01:32:40;22.00;99.90
53599;DHT22;39485;45.702;11.364;2023-07-31T01:35:07;22.00;99.90
53599;DHT22;39485;45.702;11.364;2023-07-31T01:37:34;21.90;99.90
53599;DHT22;39485;45.702;11.364;2023-07-31T01:40:00;21.90;99.90
53599;DHT22;39485;45.702;11.364;2023-07-31T01:42:25;21.90;99.90
53599;DHT22;39485;45.702;11.364;2023-07-31T01:44:51;21.90;99.90
53599;DHT22;39485;45.702;11.364;2023-07-31T01:47:18;21.80;99.90
53599;DHT22;39485;45.702;11.364;2023-07-31T01:49:44;21.80;99.90
53599;DHT22;39485;45.702;11.364;2023-07-31T01:52:10;21.80;99.90
53599;DHT22;39485;45.702;11.364;2023-07-31T01:54:35;21.80;99.90
53599;DHT22;39485;45.702;11.364;2023-07-31T01:57:02;21.80;99.90
53599;DHT22;39485;45.702;11.364;2023-07-31T01:59:28;21.80;99.90
53599;DHT22;39485;45.702;11.364;2023-07-31T02:01:54;21.70;99.90
53599;DHT22;39485;45.702;11.364;2023-07-31T02:04:20;21.70;99.90
53599;DHT22;39485;45.702;11.364;2023-07-31T02:06:45;21.70;99.90
53599;DHT22;39485;45.702;11.364;2023-07-31T02:09:11;21.70;99.90
53599;DHT22;39485;45.702;11.364;2023-07-31T02:11:37;21.70;99.90
53599;DHT22;39485;45.702;11.364;2023-07-31T02:14:03;21.70;99.90
53599;DHT22;39485;45.702;11.364;2023-07-31T02:16:28;21.70;99.90
53599;DHT22;39485;45.702;11.364;2023-07-31T02:18:54;21.70;99.90
53599;DHT22;39485;45.702;11.364;2023-07-31T02:21:20;21.70;99.90
53599;DHT22;39485;45.702;11.364;2023-07-31T02:23:45;21.60;99.90
53599;DHT22;39485;45.702;11.364;2023-07-31T02:26:11;21.60;99.90
53599;DHT22;39485;45.702;11.364;2023-07-31T02:28:37;21.60;99.90
53599;DHT22;39485;45.702;11.364;2023-07-31T02:31:03;21.60;99.90
53599;DHT22;39485;45.702;11.364;2023-07-31T02:33:28;21.60;99.90
53599;DHT22;39485;45.702;11.364;2023-07-31T02:35:54;21.60;99.90
53599;DHT22;39485;45.702;11.364;2023-07-31T02:38:20;21.60;99.90
53599;DHT22;39485;45.702;11.364;2023-07-31T02:40:45;21.60;99.90
53599;DHT22;39485;45.702;11.364;2023-07-31T02:43:11;21.50;99.90
53599;DHT22;39485;45.702;11.364;2023-07-31T02:45:37;21.50;99.90
53599;DHT22;39485;45.702;11.364;2023-07-31T02:48:03;21.50;99.90
53599;DHT22;39485;45.702;11.364;2023-07-31T02:50:29;21.50;99.90
53599;DHT22;39485;45.702;11.364;2023-07-31T02:52:55;21.50;99.90
53599;DHT22;39485;45.702;11.364;2023-07-31T02:55:20;21.50;99.90
53599;DHT22;39485;45.702;11.364;2023-07-31T02:57:46;21.50;99.90
53599;DHT22;39485;45.702;11.364;2023-07-31T03:00:12;21.50;99.90
53599;DHT22;39485;45.702;11.364;2023-07-31T03:02:38;21.50;99.90
53599;DHT22;39485;45.702;11.364;2023-07-31T03:05:04;21.50;99.90
53599;DHT22;39485;45.702;11.364;2023-07-31T03:07:30;21.40;99.90
53599;DHT22;39485;45.702;11.364;2023-07-31T03:09:56;21.40;99.90
53599;DHT22;39485;45.702;11.364;2023-07-31T03:12:22;21.40;99.90
53599;DHT22;39485;45.702;11.364;2023-07-31T03:14:47;21.40;99.90
53599;DHT22;39485;45.702;11.364;2023-07-31T03:17:13;21.40;99.90
53599;DHT22;39485;45.702;11.364;2023-07-31T03:19:39;21.40;99.90
53599;DHT22;39485;45.702;11.364;2023-07-31T03:22:05;21.40;99.90
53599;DHT22;39485;45.702;11.364;2023-07-31T03:24:31;21.30;99.90
53599;DHT22;39485;45.702;11.364;2023-07-31T03:26:56;21.30;99.90
53599;DHT22;39485;45.702;11.364;2023-07-31T03:29:22;21.30;99.90
53599;DHT22;39485;45.702;11.364;2023-07-31T03:31:48;21.20;99.90
53599;DHT22;39485;45.702;11.364;2023-07-31T03:34:13;21.20;99.90
53599;DHT22;39485;45.702;11.364;2023-07-31T03:36:39;21.10;99.90
53599;DHT22;39485;45.702;11.364;2023-07-31T03:39:05;21.10;99.90
53599;DHT22;39485;45.702;11.364;2023-07-31T03:41:31;21.10;99.90
53599;DHT22;39485;45.702;11.364;2023-07-31T03:43:56;21.10;99.90
53599;DHT22;39485;45.702;11.364;2023-07-31T03:46:23;21.10;99.90
53599;DHT22;39485;45.702;11.364;2023-07-31T03:48:49;21.10;99.90
53599;DHT22;39485;45.702;11.364;2023-07-31T03:51:15;21.10;99.90
53599;DHT22;39485;45.702;11.364;2023-07-31T03:53:42;21.10;99.90
53599;DHT22;39485;45.702;11.364;2023-07-31T03:56:08;21.10;99.90
53599;DHT22;39485;45.702;11.364;2023-07-31T03:58:34;21.10;99.90
53599;DHT22;39485;45.702;11.364;2023-07-31T04:01:01;21.10;99.90
53599;DHT22;39485;45.702;11.364;2023-07-31T04:03:27;21.10;99.90
53599;DHT22;39485;45.702;11.364;2023-07-31T04:05:54;21.10;99.90
53599;DHT22;39485;45.702;11.364;2023-07-31T04:08:21;21.10;99.90
53599;DHT22;39485;45.702;11.364;2023-07-31T04:10:47;21.10;99.90
53599;DHT22;39485;45.702;11.364;2023-07-31T04:13:13;21.10;99.90
53599;DHT22;39485;45.702;11.364;2023-07-31T04:15:39;21.10;99.90
53599;DHT22;39485;45.702;11.364;2023-07-31T04:18:05;21.10;99.90
53599;DHT22;39485;45.702;11.364;2023-07-31T04:20:32;21.10;99.90
53599;DHT22;39485;45.702;11.364;2023-07-31T04:22:58;21.10;99.90
53599;DHT22;39485;45.702;11.364;2023-07-31T04:25:24;21.10;99.90
53599;DHT22;39485;45.702;11.364;2023-07-31T04:27:49;21.10;99.90
53599;DHT22;39485;45.702;11.364;2023-07-31T04:30:15;21.10;99.90
53599;DHT22;39485;45.702;11.364;2023-07-31T04:32:41;21.10;99.90
53599;DHT22;39485;45.702;11.364;2023-07-31T04:35:07;21.10;99.90
53599;DHT22;39485;45.702;11.364;2023-07-31T04:37:32;21.10;99.90
53599;DHT22;39485;45.702;11.364;2023-07-31T04:39:58;21.10;99.90
53599;DHT22;39485;45.702;11.364;2023-07-31T04:42:24;21.10;99.90
53599;DHT22;39485;45.702;11.364;2023-07-31T04:44:50;21.10;99.90
53599;DHT22;39485;45.702;11.364;2023-07-31T04:47:16;21.10;99.90
53599;DHT22;39485;45.702;11.364;2023-07-31T04:49:41;21.10;99.90
53599;DHT22;39485;45.702;11.364;2023-07-31T04:52:07;21.10;99.90
53599;DHT22;39485;45.702;11.364;2023-07-31T04:54:33;21.20;99.90
53599;DHT22;39485;45.702;11.364;2023-07-31T04:56:59;21.20;99.90
53599;DHT22;39485;45.702;11.364;2023-07-31T04:59:24;21.30;99.90
53599;DHT22;39485;45.702;11.364;2023-07-31T05:01:50;21.30;99.90
53599;DHT22;39485;45.702;11.364;2023-07-31T05:04:16;21.40;99.90
53599;DHT22;39485;45.702;11.364;2023-07-31T05:06:42;21.40;99.90
53599;DHT22;39485;45.702;11.364;2023-07-31T05:09:08;21.50;99.90
53599;DHT22;39485;45.702;11.364;2023-07-31T05:11:35;21.60;99.90
53599;DHT22;39485;45.702;11.364;2023-07-31T05:14:00;21.70;99.90
53599;DHT22;39485;45.702;11.364;2023-07-31T05:16:26;21.70;99.90
53599;DHT22;39485;45.702;11.364;2023-07-31T05:18:52;21.80;99.90
53599;DHT22;39485;45.702;11.364;2023-07-31T05:21:18;21.80;99.90
53599;DHT22;39485;45.702;11.364;2023-07-31T05:23:43;21.90;99.90
53599;DHT22;39485;45.702;11.364;2023-07-31T05:26:09;22.00;99.90
53599;DHT22;39485;45.702;11.364;2023-07-31T05:28:36;22.00;99.90
53599;DHT22;39485;45.702;11.364;2023-07-31T05:31:02;22.10;99.90
53599;DHT22;39485;45.702;11.364;2023-07-31T05:33:29;22.10;99.90
53599;DHT22;39485;45.702;11.364;2023-07-31T05:35:55;22.20;99.90
53599;DHT22;39485;45.702;11.364;2023-07-31T05:38:20;22.30;99.90
53599;DHT22;39485;45.702;11.364;2023-07-31T05:40:47;22.30;99.90
53599;DHT22;39485;45.702;11.364;2023-07-31T05:43:13;22.30;99.90
53599;DHT22;39485;45.702;11.364;2023-07-31T05:45:43;22.40;99.90
53599;DHT22;39485;45.702;11.364;2023-07-31T05:48:09;22.40;99.90
53599;DHT22;39485;45.702;11.364;2023-07-31T05:50:35;22.40;99.90
53599;DHT22;39485;45.702;11.364;2023-07-31T05:53:01;22.50;99.90
53599;DHT22;39485;45.702;11.364;2023-07-31T05:55:26;22.50;99.90
53599;DHT22;39485;45.702;11.364;2023-07-31T05:57:53;22.50;99.90
53599;DHT22;39485;45.702;11.364;2023-07-31T06:00:18;22.60;99.90
53599;DHT22;39485;45.702;11.364;2023-07-31T06:02:44;22.60;99.90
53599;DHT22;39485;45.702;11.364;2023-07-31T06:05:10;22.70;99.90
53599;DHT22;39485;45.702;11.364;2023-07-31T06:07:36;22.80;99.90
53599;DHT22;39485;45.702;11.364;2023-07-31T06:10:02;23.00;99.90
53599;DHT22;39485;45.702;11.364;2023-07-31T06:12:34;23.10;99.90
53599;DHT22;39485;45.702;11.364;2023-07-31T06:15:01;23.10;99.90
53599;DHT22;39485;45.702;11.364;2023-07-31T06:17:27;23.20;99.90
53599;DHT22;39485;45.702;11.364;2023-07-31T06:23:44;23.40;99.90
53599;DHT22;39485;45.702;11.364;2023-07-31T06:26:13;23.50;99.90
53599;DHT22;39485;45.702;11.364;2023-07-31T06:28:40;23.60;99.90
53599;DHT22;39485;45.702;11.364;2023-07-31T06:31:12;23.60;99.90
53599;DHT22;39485;45.702;11.364;2023-07-31T06:33:54;23.80;99.90
53599;DHT22;39485;45.702;11.364;2023-07-31T06:36:19;23.90;99.90
53599;DHT22;39485;45.702;11.364;2023-07-31T06:38:45;24.00;99.90
53599;DHT22;39485;45.702;11.364;2023-07-31T06:41:11;24.00;99.90
53599;DHT22;39485;45.702;11.364;2023-07-31T06:43:37;24.10;99.90
53599;DHT22;39485;45.702;11.364;2023-07-31T06:46:07;24.20;99.90
53599;DHT22;39485;45.702;11.364;2023-07-31T06:48:42;24.30;99.90
53599;DHT22;39485;45.702;11.364;2023-07-31T06:51:17;24.40;99.90
53599;DHT22;39485;45.702;11.364;2023-07-31T06:53:47;24.40;99.90
53599;DHT22;39485;45.702;11.364;2023-07-31T06:56:13;24.40;99.90
53599;DHT22;39485;45.702;11.364;2023-07-31T06:58:39;24.50;99.90
53599;DHT22;39485;45.702;11.364;2023-07-31T07:01:05;24.50;99.90
53599;DHT22;39485;45.702;11.364;2023-07-31T07:03:32;24.50;99.90
53599;DHT22;39485;45.702;11.364;2023-07-31T07:05:58;24.60;99.90
53599;DHT22;39485;45.702;11.364;2023-07-31T07:08:24;24.60;99.90
53599;DHT22;39485;45.702;11.364;2023-07-31T07:10:50;24.60;99.90
53599;DHT22;39485;45.702;11.364;2023-07-31T07:13:16;24.70;99.90
53599;DHT22;39485;45.702;11.364;2023-07-31T07:15:51;24.80;99.90
53599;DHT22;39485;45.702;11.364;2023-07-31T07:18:17;24.90;99.90
53599;DHT22;39485;45.702;11.364;2023-07-31T07:20:47;24.90;99.90
53599;DHT22;39485;45.702;11.364;2023-07-31T07:23:13;25.00;99.90
53599;DHT22;39485;45.702;11.364;2023-07-31T07:25:38;25.10;99.90
53599;DHT22;39485;45.702;11.364;2023-07-31T07:28:04;25.20;99.90
53599;DHT22;39485;45.702;11.364;2023-07-31T07:30:30;25.30;99.90
53599;DHT22;39485;45.702;11.364;2023-07-31T07:32:56;25.40;99.90
53599;DHT22;39485;45.702;11.364;2023-07-31T07:35:21;25.50;99.90
53599;DHT22;39485;45.702;11.364;2023-07-31T07:37:49;25.60;99.90
53599;DHT22;39485;45.702;11.364;2023-07-31T07:40:15;25.60;99.90
53599;DHT22;39485;45.702;11.364;2023-07-31T07:42:41;25.70;99.90
53599;DHT22;39485;45.702;11.364;2023-07-31T07:45:07;25.70;99.90
53599;DHT22;39485;45.702;11.364;2023-07-31T07:47:33;25.70;99.90
53599;DHT22;39485;45.702;11.364;2023-07-31T07:50:02;25.80;99.90
53599;DHT22;39485;45.702;11.364;2023-07-31T07:52:28;25.80;99.90
53599;DHT22;39485;45.702;11.364;2023-07-31T07:54:53;25.80;99.90
53599;DHT22;39485;45.702;11.364;2023-07-31T07:57:19;25.80;99.90
53599;DHT22;39485;45.702;11.364;2023-07-31T07:59:45;25.90;99.90
53599;DHT22;39485;45.702;11.364;2023-07-31T08:02:10;25.90;99.90
53599;DHT22;39485;45.702;11.364;2023-07-31T08:04:36;25.90;99.90
53599;DHT22;39485;45.702;11.364;2023-07-31T08:07:02;26.00;99.90
53599;DHT22;39485;45.702;11.364;2023-07-31T08:09:28;26.00;99.90
53599;DHT22;39485;45.702;11.364;2023-07-31T08:11:53;26.00;99.90
53599;DHT22;39485;45.702;11.364;2023-07-31T08:14:22;26.10;99.90
53599;DHT22;39485;45.702;11.364;2023-07-31T08:16:48;26.10;99.90
53599;DHT22;39485;45.702;11.364;2023-07-31T08:19:14;26.20;99.90
53599;DHT22;39485;45.702;11.364;2023-07-31T08:21:39;26.20;99.90
53599;DHT22;39485;45.702;11.364;2023-07-31T08:24:05;26.20;99.90
53599;DHT22;39485;45.702;11.364;2023-07-31T08:26:31;26.20;99.90
53599;DHT22;39485;45.702;11.364;2023-07-31T08:28:57;26.10;99.90
53599;DHT22;39485;45.702;11.364;2023-07-31T08:31:23;26.10;99.90
53599;DHT22;39485;45.702;11.364;2023-07-31T08:33:48;26.10;99.90
53599;DHT22;39485;45.702;11.364;2023-07-31T08:36:14;26.10;99.90
53599;DHT22;39485;45.702;11.364;2023-07-31T08:38:40;26.10;99.90
53599;DHT22;39485;45.702;11.364;2023-07-31T08:41:05;26.20;99.90
53599;DHT22;39485;45.702;11.364;2023-07-31T08:43:32;26.20;99.90
53599;DHT22;39485;45.702;11.364;2023-07-31T08:45:59;26.30;99.90
53599;DHT22;39485;45.702;11.364;2023-07-31T08:48:25;26.30;99.90
53599;DHT22;39485;45.702;11.364;2023-07-31T08:50:52;26.40;99.90
53599;DHT22;39485;45.702;11.364;2023-07-31T08:53:18;26.40;99.90
53599;DHT22;39485;45.702;11.364;2023-07-31T08:55:44;26.50;99.90
53599;DHT22;39485;45.702;11.364;2023-07-31T08:58:12;26.60;99.90
53599;DHT22;39485;45.702;11.364;2023-07-31T09:00:40;26.70;99.90
53599;DHT22;39485;45.702;11.364;2023-07-31T09:03:15;26.70;99.90
53599;DHT22;39485;45.702;11.364;2023-07-31T09:05:46;26.70;99.90
53599;DHT22;39485;45.702;11.364;2023-07-31T09:08:13;26.80;99.90
53599;DHT22;39485;45.702;11.364;2023-07-31T09:10:45;26.80;99.90
53599;DHT22;39485;45.702;11.364;2023-07-31T09:13:15;26.90;99.90
53599;DHT22;39485;45.702;11.364;2023-07-31T09:15:44;27.00;99.90
53599;DHT22;39485;45.702;11.364;2023-07-31T09:18:10;27.00;99.90
53599;DHT22;39485;45.702;11.364;2023-07-31T09:20:36;27.00;99.90
53599;DHT22;39485;45.702;11.364;2023-07-31T09:23:08;27.10;99.90
53599;DHT22;39485;45.702;11.364;2023-07-31T09:25:34;27.20;99.90
53599;DHT22;39485;45.702;11.364;2023-07-31T09:28:08;27.30;99.90
53599;DHT22;39485;45.702;11.364;2023-07-31T09:31:04;27.40;99.90
53599;DHT22;39485;45.702;11.364;2023-07-31T09:33:33;27.50;99.90
53599;DHT22;39485;45.702;11.364;2023-07-31T09:36:00;27.60;99.90
53599;DHT22;39485;45.702;11.364;2023-07-31T09:38:29;27.70;99.90
53599;DHT22;39485;45.702;11.364;2023-07-31T09:40:55;27.70;99.90
53599;DHT22;39485;45.702;11.364;2023-07-31T09:43:24;27.80;99.70
53599;DHT22;39485;45.702;11.364;2023-07-31T09:45:55;27.80;99.40
53599;DHT22;39485;45.702;11.364;2023-07-31T09:48:24;27.90;99.40
53599;DHT22;39485;45.702;11.364;2023-07-31T09:50:53;27.90;99.30
53599;DHT22;39485;45.702;11.364;2023-07-31T09:53:28;28.00;99.00
53599;DHT22;39485;45.702;11.364;2023-07-31T09:55:54;28.00;98.70
53599;DHT22;39485;45.702;11.364;2023-07-31T09:58:22;28.00;98.00
53599;DHT22;39485;45.702;11.364;2023-07-31T10:00:48;28.10;97.90
53599;DHT22;39485;45.702;11.364;2023-07-31T10:03:15;28.10;97.20
53599;DHT22;39485;45.702;11.364;2023-07-31T10:05:45;28.10;96.60
53599;DHT22;39485;45.702;11.364;2023-07-31T10:08:15;28.10;96.50
53599;DHT22;39485;45.702;11.364;2023-07-31T10:10:45;28.20;96.40
53599;DHT22;39485;45.702;11.364;2023-07-31T10:13:14;28.20;95.50
53599;DHT22;39485;45.702;11.364;2023-07-31T10:15:43;28.20;95.30
53599;DHT22;39485;45.702;11.364;2023-07-31T10:18:09;28.20;95.30
53599;DHT22;39485;45.702;11.364;2023-07-31T10:20:35;28.30;95.10
53599;DHT22;39485;45.702;11.364;2023-07-31T10:23:02;28.30;94.80
53599;DHT22;39485;45.702;11.364;2023-07-31T10:25:32;28.40;94.60
53599;DHT22;39485;45.702;11.364;2023-07-31T10:27:58;28.40;94.40
53599;DHT22;39485;45.702;11.364;2023-07-31T10:30:27;28.50;94.50
53599;DHT22;39485;45.702;11.364;2023-07-31T10:32:57;28.50;93.90
53599;DHT22;39485;45.702;11.364;2023-07-31T10:35:23;28.50;93.80
53599;DHT22;39485;45.702;11.364;2023-07-31T10:37:52;28.50;93.60
53599;DHT22;39485;45.702;11.364;2023-07-31T10:40:19;28.60;93.50
53599;DHT22;39485;45.702;11.364;2023-07-31T10:42:56;28.60;93.40
53599;DHT22;39485;45.702;11.364;2023-07-31T10:45:32;28.60;93.50
53599;DHT22;39485;45.702;11.364;2023-07-31T10:48:05;28.60;93.00
53599;DHT22;39485;45.702;11.364;2023-07-31T10:50:33;28.60;92.60
53599;DHT22;39485;45.702;11.364;2023-07-31T10:53:02;28.70;92.80
53599;DHT22;39485;45.702;11.364;2023-07-31T10:55:35;28.70;92.20
53599;DHT22;39485;45.702;11.364;2023-07-31T10:58:14;28.60;92.10
53599;DHT22;39485;45.702;11.364;2023-07-31T11:00:49;28.60;92.10
53599;DHT22;39485;45.702;11.364;2023-07-31T11:03:18;28.60;92.20
53599;DHT22;39485;45.702;11.364;2023-07-31T11:05:49;28.70;92.30
53599;DHT22;39485;45.702;11.364;2023-07-31T11:10:49;28.70;92.80
53599;DHT22;39485;45.702;11.364;2023-07-31T11:13:15;28.70;92.60
53599;DHT22;39485;45.702;11.364;2023-07-31T11:15:41;28.70;92.40
53599;DHT22;39485;45.702;11.364;2023-07-31T11:18:10;28.70;92.50
53599;DHT22;39485;45.702;11.364;2023-07-31T11:20:37;28.70;92.50
53599;DHT22;39485;45.702;11.364;2023-07-31T11:23:06;28.70;92.60
53599;DHT22;39485;45.702;11.364;2023-07-31T11:25:32;28.60;92.70
53599;DHT22;39485;45.702;11.364;2023-07-31T11:28:06;28.60;93.00
53599;DHT22;39485;45.702;11.364;2023-07-31T11:30:33;28.70;93.00
53599;DHT22;39485;45.702;11.364;2023-07-31T11:33:01;28.70;93.20
53599;DHT22;39485;45.702;11.364;2023-07-31T11:35:32;28.70;92.60
53599;DHT22;39485;45.702;11.364;2023-07-31T11:38:01;28.70;92.40
53599;DHT22;39485;45.702;11.364;2023-07-31T11:40:28;28.70;92.90
53599;DHT22;39485;45.702;11.364;2023-07-31T11:43:04;28.80;93.20
53599;DHT22;39485;45.702;11.364;2023-07-31T11:45:30;28.80;92.90
53599;DHT22;39485;45.702;11.364;2023-07-31T11:47:56;28.80;92.90
53599;DHT22;39485;45.702;11.364;2023-07-31T11:50:23;28.80;93.00
53599;DHT22;39485;45.702;11.364;2023-07-31T11:53:03;28.80;93.00
53599;DHT22;39485;45.702;11.364;2023-07-31T11:55:30;28.90;93.20
53599;DHT22;39485;45.702;11.364;2023-07-31T11:57:57;29.00;93.10
53599;DHT22;39485;45.702;11.364;2023-07-31T12:00:25;29.00;92.70
53599;DHT22;39485;45.702;11.364;2023-07-31T12:02:51;29.00;92.50
53599;DHT22;39485;45.702;11.364;2023-07-31T12:05:17;29.00;92.10
53599;DHT22;39485;45.702;11.364;2023-07-31T12:10:42;29.00;92.00
53599;DHT22;39485;45.702;11.364;2023-07-31T12:13:28;29.00;91.70
53599;DHT22;39485;45.702;11.364;2023-07-31T12:15:57;28.90;91.80
53599;DHT22;39485;45.702;11.364;2023-07-31T12:18:24;28.90;91.50
53599;DHT22;39485;45.702;11.364;2023-07-31T12:20:58;28.90;91.20
53599;DHT22;39485;45.702;11.364;2023-07-31T12:23:28;28.90;91.10
53599;DHT22;39485;45.702;11.364;2023-07-31T12:31:06;28.90;91.20
53599;DHT22;39485;45.702;11.364;2023-07-31T12:33:35;28.90;91.20
53599;DHT22;39485;45.702;11.364;2023-07-31T12:36:02;29.00;91.30
53599;DHT22;39485;45.702;11.364;2023-07-31T12:38:29;29.00;91.20
53599;DHT22;39485;45.702;11.364;2023-07-31T12:40:58;29.00;91.20
53599;DHT22;39485;45.702;11.364;2023-07-31T12:43:24;29.10;91.00
53599;DHT22;39485;45.702;11.364;2023-07-31T12:45:49;29.10;90.70
53599;DHT22;39485;45.702;11.364;2023-07-31T12:48:15;29.10;90.90
53599;DHT22;39485;45.702;11.364;2023-07-31T12:50:41;29.10;90.60
53599;DHT22;39485;45.702;11.364;2023-07-31T12:53:07;29.00;90.70
53599;DHT22;39485;45.702;11.364;2023-07-31T12:55:33;29.00;90.70
53599;DHT22;39485;45.702;11.364;2023-07-31T12:58:02;29.00;90.90
53599;DHT22;39485;45.702;11.364;2023-07-31T13:00:28;29.00;90.70
53599;DHT22;39485;45.702;11.364;2023-07-31T13:02:57;29.00;90.80
53599;DHT22;39485;45.702;11.364;2023-07-31T13:05:26;29.10;90.80
53599;DHT22;39485;45.702;11.364;2023-07-31T13:07:52;29.00;90.70
53599;DHT22;39485;45.702;11.364;2023-07-31T13:10:18;29.00;91.10
53599;DHT22;39485;45.702;11.364;2023-07-31T13:12:44;29.10;91.20
53599;DHT22;39485;45.702;11.364;2023-07-31T13:15:10;29.10;91.20
53599;DHT22;39485;45.702;11.364;2023-07-31T13:17:36;29.10;91.20
53599;DHT22;39485;45.702;11.364;2023-07-31T13:20:03;29.10;91.10
53599;DHT22;39485;45.702;11.364;2023-07-31T13:22:29;29.10;91.40
53599;DHT22;39485;45.702;11.364;2023-07-31T13:24:55;29.10;90.90
53599;DHT22;39485;45.702;11.364;2023-07-31T13:27:21;29.10;90.80
53599;DHT22;39485;45.702;11.364;2023-07-31T13:29:51;29.10;90.50
53599;DHT22;39485;45.702;11.364;2023-07-31T13:32:17;29.10;90.60
53599;DHT22;39485;45.702;11.364;2023-07-31T13:34:44;29.10;90.20
53599;DHT22;39485;45.702;11.364;2023-07-31T13:37:09;29.10;90.30
53599;DHT22;39485;45.702;11.364;2023-07-31T13:39:35;29.10;90.30
53599;DHT22;39485;45.702;11.364;2023-07-31T13:42:03;29.10;89.80
53599;DHT22;39485;45.702;11.364;2023-07-31T13:44:29;29.10;89.80
53599;DHT22;39485;45.702;11.364;2023-07-31T13:46:55;29.10;90.10
53599;DHT22;39485;45.702;11.364;2023-07-31T18:24:01;26.70;96.70
53599;DHT22;39485;45.702;11.364;2023-07-31T18:26:26;26.50;96.90
53599;DHT22;39485;45.702;11.364;2023-07-31T18:28:52;26.50;97.10
53599;DHT22;39485;45.702;11.364;2023-07-31T18:31:18;26.40;97.40
53599;DHT22;39485;45.702;11.364;2023-07-31T18:33:44;26.30;97.80
53599;DHT22;39485;45.702;11.364;2023-07-31T18:36:10;26.20;98.30
53599;DHT22;39485;45.702;11.364;2023-07-31T18:38:36;26.10;98.60
53599;DHT22;39485;45.702;11.364;2023-07-31T18:41:07;26.10;99.10
53599;DHT22;39485;45.702;11.364;2023-07-31T18:43:33;26.00;99.60
53599;DHT22;39485;45.702;11.364;2023-07-31T18:45:59;26.00;99.90
53599;DHT22;39485;45.702;11.364;2023-07-31T18:48:24;25.90;99.90
53599;DHT22;39485;45.702;11.364;2023-07-31T18:50:51;25.80;99.90
53599;DHT22;39485;45.702;11.364;2023-07-31T18:53:17;25.80;99.90
53599;DHT22;39485;45.702;11.364;2023-07-31T18:55:44;25.70;99.90
53599;DHT22;39485;45.702;11.364;2023-07-31T18:58:10;25.70;99.90
53599;DHT22;39485;45.702;11.364;2023-07-31T19:00:36;25.60;99.90
53599;DHT22;39485;45.702;11.364;2023-07-31T19:03:01;25.50;99.90
53599;DHT22;39485;45.702;11.364;2023-07-31T19:05:27;25.50;99.90
53599;DHT22;39485;45.702;11.364;2023-07-31T19:07:53;25.50;99.90
53599;DHT22;39485;45.702;11.364;2023-07-31T19:10:19;25.40;99.90
53599;DHT22;39485;45.702;11.364;2023-07-31T19:12:44;25.30;99.90
53599;DHT22;39485;45.702;11.364;2023-07-31T19:15:10;25.30;99.90
53599;DHT22;39485;45.702;11.364;2023-07-31T19:17:37;25.30;99.90
53599;DHT22;39485;45.702;11.364;2023-07-31T19:20:04;25.20;99.90
53599;DHT22;39485;45.702;11.364;2023-07-31T19:22:31;25.20;99.90
53599;DHT22;39485;45.702;11.364;2023-07-31T19:24:57;25.20;99.90
53599;DHT22;39485;45.702;11.364;2023-07-31T19:27:22;25.20;99.90
53599;DHT22;39485;45.702;11.364;2023-07-31T19:29:48;25.10;99.90
53599;DHT22;39485;45.702;11.364;2023-07-31T19:32:14;25.10;99.90
53599;DHT22;39485;45.702;11.364;2023-07-31T19:34:40;25.00;99.90
53599;DHT22;39485;45.702;11.364;2023-07-31T19:37:06;25.00;99.90
53599;DHT22;39485;45.702;11.364;2023-07-31T19:39:31;25.00;99.90
53599;DHT22;39485;45.702;11.364;2023-07-31T19:41:59;24.90;99.90
53599;DHT22;39485;45.702;11.364;2023-07-31T19:44:25;24.90;99.90
53599;DHT22;39485;45.702;11.364;2023-07-31T19:46:51;24.80;99.90
53599;DHT22;39485;45.702;11.364;2023-07-31T19:49:16;24.80;99.90
53599;DHT22;39485;45.702;11.364;2023-07-31T19:51:42;24.70;99.90
53599;DHT22;39485;45.702;11.364;2023-07-31T19:54:08;24.70;99.90
53599;DHT22;39485;45.702;11.364;2023-07-31T19:56:33;24.60;99.90
53599;DHT22;39485;45.702;11.364;2023-07-31T19:58:59;24.60;99.90
53599;DHT22;39485;45.702;11.364;2023-07-31T20:01:25;24.50;99.90
53599;DHT22;39485;45.702;11.364;2023-07-31T20:03:51;24.50;99.90
53599;DHT22;39485;45.702;11.364;2023-07-31T20:06:17;24.40;99.90
53599;DHT22;39485;45.702;11.364;2023-07-31T20:08:43;24.40;99.90